الصفحة الرئيسية
METAR-TAF:

METAR-TAF

مطار :

بورتو أليغري, ريو غراندي دو سول, البرازيل

دائرة عرض: 30-00S, خط طول: 051-11W, ارتفاع: 3 متر

مراقبة الطقس الحالي

تاريخ ووقت الإصدار 21 دقيقة قبل الساعة 04:00UTC
ريح 15 عقدة من الجنوب تتزايد حتى 25 عقدة, الاتجاه يتراوح بين الجنوب الشرقي و الجنوب الغربي
درجة الحرارة 21°درجة مئوية
الرطوبة 88%
ضغط
الرؤية: 6000 متر
غيوم قليلة على ارتفاع 2000 قدم
ملبد بالغيوم على ارتفاع 8000 قدم
مطر خفيف

METAR: SBPA 240400Z 17015G25KT 130V230 6000 -RA FEW020 OVC080 21/19 Q1 012 RETS

زمن: 01:21 (04:21 UTC)

توقعات

تاريخ ووقت الإصدار 5ساعات و 51 دقيقة قبل الساعة 22:30UTC
التوقعات صالحة من24 الساعة 00 UTC إلى 24 الساعة 24 UTC
ريح 12 عقدة من الشمال/الشمال الشرقي
الرؤية 10 كم أو أكثر
غيوم مفككة على ارتفاع 3000 قدم
نظرية الاحتمالات 40%
من 24 الساعة 06 UTC إلى 24 الساعة 14 UTC
الرؤية: 8000 متر
غيوم مفككة على ارتفاع 1000 قدم
غيوم مفككة على ارتفاع 2000 قدم
مطر

TAF: SBPA 232230Z 2400/2424 03012KT 9999 BKN030 TN18/2409Z TX22/2417Z PROB40 2406/2414 8000 RA BKN010 BKN020 RMK PEB

أرصاد الطقس والتوقعات من أكثر من 4000 مطار (تقارير الطقس للمطار METAR والتنبؤ بالطقس بالمطارTAF).

المحطات المتاحة هي النقط الصفراء والحمراء على الخريطة.

حرك المؤشر فوق النقطة لمعرفة اسم المحطة.

ثم انقر لمعرفة أرصاد وتوقعات الطقس.

لتغيير الخارطة: اضغط على الأزرار الخضراء مع رمز الصليب الأسود للتكبير. على الزر الأخضر مع شرطة للتصغير، أو على الأسهم الخضراء للخرائط المجاورة.


METAR-TAF: